Monday, May 02, 2016
19:27 UTC
  |  Log In   |  Register Free
Airport Search:

New River Valley Airport
(KPSK)

New River Valley Airport Diagram
No Airport Diagram Available

FAA data valid effective Mar 31 2016 - May 26 2016 (unless otherwise noted).

 
 
 
 
 
 
 
 
 
 
 
 
 
 
Current Aviation Weather for KPSK

Weather Summary


The most recent METAR observation for PSK was updated at: 12:55 UTC
METAR for KPSK is not available. Closest METAR is for KBCB
KPSK  (most recent observation was updatred at 21:91 UTC)
021915Z AUTO 19007KT 10SM TS BKN060 BKN070 BKN085 26/15 A2994 RMK AO2 LTG DSNT SE S AND NW T02630150

KBCB  (13.6 nm SW)   (most recent observation was updated at 21:91 UTC)
021915Z AUTO 30005KT 10SM BKN050 25/15 A2996 RMK AO2 T02510153 TSNO

KHLX  (23.4 nm NE)   (most recent observation was updated at 21:91 UTC)
021915Z AUTO 19007KT 150V210 10SM VCTS SCT050 SCT060 SCT075 22/16 A2997 RMK AO2 LTG DSNT ALQS T02220159

TAF for KPSK is not available.
KBCB  (13.6 nm SW)   (most recent observation was updatred at 21:72 UTC)
021722Z 0218/0318 24007KT P6SM VCSH BKN040 BKN250 FM022000 24010G20KT 5SM SHRA VCTS BKN035CB OVC090 TEMPO 0220/0224 VRB15G25KT 1SM +TSRA BR OVC015CB FM030000 24005KT 4SM SHRA BR VCTS BKN025 OVC045CB FM030500 VRB03KT 4SM BR VCSH OVC020 FM031600 27009KT P6SM SCT025 OVC050


KBLF  (27.0 nm SE)   (most recent observation was updatred at 21:91 UTC)
AMD 021918Z 0219/0318 30011G31KT 1 1/2SM -TSRA SCT016 OVC035CB TEMPO 0219/0220 VRB15G30KT 1/4SM +TSRA FG OVC015CB FM022100 27010G20KT 4SM -TSRA OVC025CB FM030000 VRB05KT 4SM SHRA BR VCTS BKN015 OVC025CB FM030600 29004KT 4SM BR VCSH OVC013 FM031600 28009KT P6SM SCT007 OVC015


GlobalAir.com is loading additional information.
 Current Weather at PSK
76.0 F° (24.6 C°)

West winds at 3.5 mph
Pressure:
29.99 in
Humidity:
56%
Wind:
West at 3.5 mph
Dew Point:
59.4 F° (15.2 C°)
Visibility:
10.00 mi
PSK NOAA Radar




Find All Airport Services Find A Hotel Find A Rental Car Find A Golf Course Find A Restaurant $100 Hamburger



Airport Weather Forecast for KPSK

Translated METAR for KPSK (1915 UTC)
METAR:
KPSK 021915Z AUTO 19007KT 10SM TS BKN060 BKN070 BKN085 26/15 A2994 RMK AO2 LTG DSNT SE S AND NW T02630150
Conditions at:
KPSK (New River Valley, VA) observed 1915 UTC 02 May 2016
Temperature:
26°C (78.8°F)
Dewpoint:
15°C (59°F) [RH = 50.7]
Pressure:
29.94 inches Hg (1013.9 mb)
Winds:
from the S (190 degrees) at 8.1 mph (7 knots: 3.6 m/s)
Visibility:
10 mile(s)
Ceiling:
6,000 feet AGL
Clouds:
Broken Cloud Cover at 6,000 feet AGL
Broken Cloud Cover at 7,000 feet AGL
Broken Cloud Cover at 8,500 feet AGL
Remarks:
site is un-manned
site is automated and HAS a precipitation sensor

Translated TAF for KBCB (Virginia Tech/Montgomery Executive, VA) (1722 UTC)
TAF text:
KBCB 021722Z 0218/0318 24007KT P6SM VCSH BKN040 BKN250
Forecast period:
Monday May 02 2016 18:00 UTC - Tuesday May 03 2016 18:00 UTC
Forecast type:
FROM: standard forecast or significant change
Winds:
from the WSW (240 degrees) at 8.1 mph (7 knots: 3.6 m/s)
Visibility:
6 or more mile(s) (9.7+ km)
Ceiling:
4,000 feet AGL
Clouds:
Broken Cloud Cover at 4,000 feet AGL
Broken Cloud Cover at 25,000 feet AGL
Weather:
Moderate In Vicinity Shower(s)
TAF text:
FM022000 24010G20KT 5SM SHRA VCTS BKN035CB OVC090
Forecast period:
Monday May 02 2016 20:00 UTC - Tuesday May 03 2016 00:00 UTC
Forecast type:
FROM: standard forecast or significant change
Winds:
from the WSW (240 degrees) at 11.5 mph (10 knots: 5.1 m/s)
gusting to 23 mph (20 knots: 10.3 m/s)
Visibility:
5 mile(s) (8 km)
Ceiling:
9,000 feet AGL
Clouds:
Overcast Skies at 9,000 feet AGL
Weather:
Moderate Shower(s) Rain
TAF text:
0220/0224 VRB15G25KT 1SM +TSRA BR OVC015CB
Forecast period:
Tuesday May 03 2016 20:00 UTC - Tuesday May 03 2016 24:00 UTC
Forecast type:
FROM: standard forecast or significant change
Winds:
variable wind direction at 17.3 mph (15 knots: 7.7 m/s)
gusting to 28.8 mph (25 knots: 12.9 m/s)
Visibility:
1 mile(s) (1.6 km)
Ceiling:
Clouds:
Weather:
Heavy Thunderstorm Rain
TAF text:
FM030000 24005KT 4SM SHRA BR VCTS BKN025 OVC045CB
Forecast period:
Tuesday May 03 2016 00:00 UTC - Tuesday May 03 2016 05:00 UTC
Forecast type:
FROM: standard forecast or significant change
Winds:
from the WSW (240 degrees) at 5.8 mph (5 knots: 2.6 m/s)
Visibility:
4 mile(s) (6.4 km)
Ceiling:
2,500 feet AGL
Clouds:
Broken Cloud Cover at 2,500 feet AGL
Overcast Skies
Weather:
Moderate Shower(s) Rain
TAF text:
FM030500 VRB03KT 4SM BR VCSH OVC020
Forecast period:
Tuesday May 03 2016 05:00 UTC - Tuesday May 03 2016 16:00 UTC
Forecast type:
FROM: standard forecast or significant change
Winds:
variable wind direction at 3.5 mph (3 knots: 1.5 m/s)
Visibility:
4 mile(s) (6.4 km)
Ceiling:
2,000 feet AGL
Clouds:
Overcast Skies at 2,000 feet AGL
Weather:
Moderate Mist
TAF text:
FM031600 27009KT P6SM SCT025 OVC050
Forecast period:
Tuesday May 03 2016 16:00 UTC - Tuesday May 03 2016 18:00 UTC
Forecast type:
FROM: standard forecast or significant change
Winds:
from the W (270 degrees) at 10.4 mph (9 knots: 4.6 m/s)
Visibility:
6 or more mile(s) (9.7+ km)
Ceiling:
5,000 feet AGL
Clouds:
Scattered Clouds at 2,500 feet AGL
Overcast Skies at 5,000 feet AGL
Weather:
no significant weather observed at this time
FBO's on the Field
FBO Company Facility Photos Services Transportation Aviation Fuel Prices: Prices include tax
Catering Weather Repair Courtesy Rental Type 100LL JetA JetA+ MOGAS 8087
 
New River Valley Airport

This FBO has not yet been rated
FS:Avfuel
Last Updated: Apr-28
Login to update fuel prices
SS:
Contact New River Valley AirportMore FBO Information
 
Add another FBO Facility Photos Catering Weather Repair Courtesy Rental Type 100LL JetA JetA+ MOGAS 8087
Services Transportation Aviation Fuel Prices: Prices include tax


model-print
model-print
model-print
model-print